Time;durP1;ratioP1;P1;durP2;ratioP2;P2;SDS_P1;SDS_P2;PMS_P1;PMS_P2;Temp;Humidity;BMP_temperature;BMP_pressure;BME280_temperature;BME280_humidity;BME280_pressure;Samples;Min_cycle;Max_cycle;Signal;HPM_P1;HPM_P2
2022/03/24 00:00:18;;;;;;;1.90;1.45;;;2.60;1.40;;;3.48;87.91;96407.47;647751;216;31692;-76
2022/03/24 00:03:00;;;;;;;2.17;1.97;;;2.70;1.40;;;3.26;85.71;96404.88;645635;216;32169;-76
2022/03/24 00:05:42;;;;;;;3.23;2.37;;;2.30;1.40;;;3.07;89.77;96403.46;648540;212;31588;-75
2022/03/24 00:08:23;;;;;;;2.50;1.90;;;2.10;1.40;;;2.92;89.56;96406.89;647164;216;32090;-76
2022/03/24 00:11:08;;;;;;;2.87;2.20;;;1.90;1.40;;;2.83;87.70;96403.58;631125;218;31740;-75
2022/03/24 00:13:50;;;;;;;2.17;1.90;;;1.60;1.40;;;2.71;92.77;96399.80;648285;212;31575;-77
2022/03/24 00:16:32;;;;;;;1.75;1.33;;;1.80;1.40;;;2.69;93.81;96401.61;646916;212;42160;-76
2022/03/24 00:19:16;;;;;;;2.10;1.35;;;1.80;1.40;;;2.47;92.78;96401.84;646964;216;31547;-77
2022/03/24 00:21:56;;;;;;;2.87;1.90;;;1.50;1.40;;;2.50;89.91;96402.20;646756;216;31556;-76
2022/03/24 00:24:37;;;;;;;2.72;2.00;;;1.00;1.40;;;1.93;92.54;96401.81;647197;216;31564;-76
2022/03/24 00:27:18;;;;;;;3.47;1.80;;;0.40;1.40;;;1.40;99.46;96405.27;647635;216;31601;-76
2022/03/24 00:30:01;;;;;;;1.62;1.52;;;0.20;1.40;;;1.49;100.00;96403.37;648230;216;42782;-76
2022/03/24 00:32:43;;;;;;;1.87;1.77;;;0.30;1.40;;;1.31;99.81;96399.80;646462;212;31573;-76
2022/03/24 00:35:53;;;;;;;2.55;2.00;;;0.30;1.40;;;1.16;100.00;96397.44;646933;212;32307;-76
2022/03/24 00:38:34;;;;;;;2.90;1.98;;;0.30;1.40;;;1.13;100.00;96402.21;647448;216;31830;-76
2022/03/24 00:41:16;;;;;;;2.70;1.20;;;0.30;1.40;;;1.18;100.00;96395.70;647769;216;31587;-76
2022/03/24 00:43:58;;;;;;;3.50;1.75;;;0.50;1.40;;;1.24;100.00;96398.06;647945;212;31563;-77
2022/03/24 00:46:43;;;;;;;3.85;1.70;;;0.70;1.40;;;1.37;100.00;96397.06;647547;216;31524;-76
2022/03/24 00:49:25;;;;;;;2.17;1.85;;;0.80;1.40;;;1.65;100.00;96390.30;647244;216;31580;-76
2022/03/24 00:52:09;;;;;;;3.55;3.22;;;0.90;1.40;;;1.69;100.00;96388.03;647539;216;31605;-76
2022/03/24 00:54:49;;;;;;;1.87;1.67;;;1.00;1.40;;;1.74;100.00;96384.55;646735;216;31529;-76
2022/03/24 00:57:31;;;;;;;1.80;1.70;;;1.10;1.40;;;1.69;100.00;96386.00;647361;216;31672;-75
2022/03/24 01:00:15;;;;;;;2.10;1.55;;;1.00;1.40;;;1.55;100.00;96378.76;647582;212;31589;-75
2022/03/24 01:02:54;;;;;;;1.70;1.60;;;1.00;1.40;;;1.61;100.00;96379.99;646691;216;32229;-76
2022/03/24 01:05:37;;;;;;;2.40;2.10;;;1.10;1.40;;;1.60;100.00;96382.25;647693;216;32496;-76
2022/03/24 01:08:19;;;;;;;1.37;1.00;;;1.10;1.40;;;1.65;100.00;96382.66;635674;212;31840;-76
2022/03/24 01:11:01;;;;;;;3.87;2.40;;;1.10;1.40;;;1.73;100.00;96381.58;648056;216;31707;-76
2022/03/24 01:13:45;;;;;;;2.20;2.00;;;1.30;1.40;;;1.79;100.00;96380.78;618481;222;31969;-75
2022/03/24 01:16:26;;;;;;;4.70;2.10;;;1.20;1.40;;;1.75;100.00;96381.78;647692;212;32215;-76
2022/03/24 01:19:14;;;;;;;4.60;2.10;;;1.10;1.40;;;1.67;100.00;96374.75;646801;216;41185;-76
2022/03/24 01:22:02;;;;;;;4.20;1.67;;;1.00;1.40;;;1.58;100.00;96383.63;647400;212;32166;-76
2022/03/24 01:24:45;;;;;;;2.20;2.00;;;0.90;1.40;;;1.58;100.00;96373.37;647169;216;31699;-75
2022/03/24 01:27:26;;;;;;;3.70;1.80;;;0.90;1.40;;;1.54;100.00;96371.44;648578;216;31635;-76
2022/03/24 01:30:09;;;;;;;3.40;2.25;;;0.90;1.40;;;1.55;100.00;96368.70;647483;216;31548;-75
2022/03/24 01:32:51;;;;;;;2.15;2.05;;;0.90;1.40;;;1.45;100.00;96367.59;646160;216;42171;-76
2022/03/24 01:35:53;;;;;;;2.75;2.10;;;0.70;1.40;;;1.40;100.00;96371.34;646467;216;31577;-75
2022/03/24 01:38:40;;;;;;;5.10;1.70;;;0.60;1.40;;;1.29;100.00;96377.14;646965;216;31680;-76
2022/03/24 01:41:22;;;;;;;2.30;2.10;;;0.40;1.40;;;1.01;100.00;96374.59;620199;226;31854;-75
2022/03/24 01:44:06;;;;;;;2.42;2.22;;;-0.10;1.40;;;0.74;100.00;96369.94;646287;216;31532;-75
2022/03/24 01:46:58;;;;;;;2.90;1.37;;;-0.30;1.40;;;0.77;100.00;96367.17;643108;214;31554;-76
2022/03/24 01:49:40;;;;;;;1.75;1.40;;;-0.20;1.40;;;0.61;100.00;96371.23;647728;212;31532;-75
2022/03/24 01:52:24;;;;;;;1.33;1.23;;;-0.40;1.40;;;0.43;100.00;96368.23;646751;216;31945;-76
2022/03/24 01:55:04;;;;;;;2.10;1.95;;;-0.50;1.40;;;0.44;100.00;96365.91;647346;212;31587;-75
2022/03/24 01:57:45;;;;;;;1.62;1.52;;;-0.30;1.40;;;0.53;100.00;96361.81;646856;212;32169;-76
2022/03/24 02:00:28;;;;;;;3.90;1.55;;;-0.20;1.40;;;0.64;100.00;96361.78;620104;226;32411;-76
2022/03/24 02:03:14;;;;;;;1.80;1.50;;;0.00;1.40;;;0.66;100.00;96363.23;647499;212;31597;-75
2022/03/24 02:05:53;;;;;;;2.75;1.70;;;0.10;1.40;;;0.75;100.00;96359.52;646562;212;31618;-76
2022/03/24 02:08:35;;;;;;;2.67;1.75;;;0.30;1.40;;;0.84;100.00;96356.17;646961;216;31499;-76
2022/03/24 02:11:17;;;;;;;2.70;1.55;;;0.30;1.40;;;0.95;100.00;96359.15;647462;212;31557;-76
2022/03/24 02:13:59;;;;;;;2.53;2.37;;;0.40;1.40;;;0.90;100.00;96361.05;646590;216;35870;-75
2022/03/24 02:16:40;;;;;;;1.87;1.77;;;0.40;1.40;;;0.95;100.00;96357.27;647972;212;42193;-76
2022/03/24 02:19:23;;;;;;;1.85;1.40;;;0.40;1.40;;;1.08;100.00;96357.35;617511;226;42541;-75
2022/03/24 02:22:10;;;;;;;2.55;1.15;;;0.50;1.40;;;1.02;100.00;96358.39;647505;216;31604;-75
2022/03/24 02:24:52;;;;;;;2.40;1.80;;;0.30;1.40;;;0.78;100.00;96359.35;646795;216;31857;-76
2022/03/24 02:27:33;;;;;;;2.20;2.00;;;0.00;1.40;;;0.67;100.00;96361.56;647660;212;32249;-75
2022/03/24 02:30:15;;;;;;;1.73;1.23;;;-0.20;1.40;;;0.55;100.00;96361.38;618796;222;32579;-76
2022/03/24 02:35:52;;;;;;;1.50;1.00;;;-0.40;1.40;;;0.41;100.00;96358.13;646604;216;31556;-75
2022/03/24 02:38:33;;;;;;;1.48;1.00;;;-0.30;1.40;;;0.68;100.00;96353.30;619264;226;32045;-75
2022/03/24 02:41:15;;;;;;;2.45;1.87;;;0.20;1.40;;;0.73;100.00;96354.74;646850;216;31572;-75
2022/03/24 02:43:56;;;;;;;2.60;1.27;;;0.20;1.40;;;0.90;100.00;96355.98;646400;216;31607;-75
2022/03/24 02:46:38;;;;;;;2.15;1.98;;;0.40;1.40;;;0.98;100.00;96352.41;646540;216;31542;-75
2022/03/24 02:49:22;;;;;;;4.47;2.50;;;0.50;1.40;;;1.03;100.00;96353.47;647878;216;31569;-75
2022/03/24 02:52:04;;;;;;;5.60;2.10;;;0.50;1.40;;;1.06;100.00;96350.08;647629;216;31530;-76
2022/03/24 02:54:45;;;;;;;1.80;1.70;;;0.50;1.40;;;1.05;100.00;96351.44;646531;216;31527;-75
2022/03/24 02:57:27;;;;;;;3.65;2.10;;;0.50;1.40;;;1.09;100.00;96357.91;646690;216;31518;-76
2022/03/24 03:00:09;;;;;;;2.65;1.92;;;0.60;1.40;;;1.19;100.00;96352.09;646461;212;31602;-76
2022/03/24 03:02:54;;;;;;;1.90;1.42;;;0.70;1.40;;;1.39;100.00;96351.39;647382;212;32646;-75
2022/03/24 03:05:35;;;;;;;3.72;1.50;;;1.00;1.40;;;1.52;100.00;96351.42;648678;216;32162;-75
2022/03/24 03:08:19;;;;;;;2.70;2.00;;;1.10;1.40;;;1.70;100.00;96352.05;609084;222;32087;-75
2022/03/24 03:11:02;;;;;;;4.25;2.30;;;1.30;1.40;;;1.83;100.00;96349.55;647966;212;31655;-76
2022/03/24 03:13:45;;;;;;;2.00;1.75;;;1.40;1.40;;;1.85;100.00;96354.14;647633;216;31547;-76
2022/03/24 03:16:26;;;;;;;1.55;1.45;;;1.40;1.40;;;1.98;100.00;96352.12;647973;216;31726;-75
2022/03/24 03:19:08;;;;;;;3.53;1.92;;;1.50;1.40;;;1.86;100.00;96349.77;647891;216;31525;-74
2022/03/24 03:21:55;;;;;;;7.35;3.17;;;1.40;1.40;;;1.77;100.00;96345.50;647228;216;31565;-75
2022/03/24 03:24:39;;;;;;;2.90;2.28;;;1.10;1.40;;;1.59;100.00;96354.81;646605;212;31544;-75
2022/03/24 03:27:19;;;;;;;4.20;2.70;;;0.90;1.40;;;1.52;100.00;96358.16;646982;216;31588;-75
2022/03/24 03:30:00;;;;;;;2.08;1.83;;;0.90;1.40;;;1.47;100.00;96355.16;619774;226;31998;-75
2022/03/24 03:32:42;;;;;;;2.80;2.00;;;0.80;1.40;;;1.45;100.00;96354.45;646822;216;31676;-75
2022/03/24 03:35:52;;;;;;;2.45;2.22;;;0.80;1.40;;;1.39;100.00;96359.15;647138;216;31547;-76
2022/03/24 03:38:34;;;;;;;2.62;2.42;;;0.80;1.40;;;1.36;100.00;96353.19;647725;212;31682;-76
2022/03/24 03:41:22;;;;;;;2.87;1.98;;;0.70;1.40;;;1.42;100.00;96353.50;646504;212;32165;-76
2022/03/24 03:44:01;;;;;;;4.10;2.40;;;0.90;1.40;;;1.34;100.00;96358.84;631097;221;32251;-76
2022/03/24 03:46:42;;;;;;;4.50;2.10;;;0.60;1.40;;;1.24;100.00;96365.52;648199;216;31555;-76
2022/03/24 03:49:27;;;;;;;3.00;1.90;;;0.60;1.40;;;1.21;100.00;96360.00;646502;215;31567;-76
2022/03/24 03:52:09;;;;;;;2.90;1.65;;;0.50;1.40;;;1.11;100.00;96362.89;620110;225;31879;-76
2022/03/24 03:54:51;;;;;;;2.90;2.03;;;0.40;1.40;;;0.98;100.00;96365.36;647533;216;31522;-76
2022/03/24 03:57:32;;;;;;;3.72;1.62;;;0.20;1.40;;;0.91;100.00;96363.39;647480;216;31593;-75
2022/03/24 04:03:04;;;;;;;3.22;1.92;;;0.30;1.40;;;0.78;100.00;96364.84;647316;216;31591;-76
2022/03/24 04:05:47;;;;;;;1.35;1.25;;;0.10;1.40;;;0.70;100.00;96359.73;647895;216;31593;-76
2022/03/24 04:08:28;;;;;;;2.50;2.30;;;0.00;1.40;;;0.60;100.00;96361.96;636397;216;31747;-74
2022/03/24 04:11:10;;;;;;;2.05;1.48;;;-0.10;1.40;;;0.44;100.00;96364.97;646527;216;31559;-76
2022/03/24 04:13:53;;;;;;;2.30;1.20;;;-0.20;1.40;;;0.53;100.00;96360.72;646664;216;31949;-76
2022/03/24 04:16:36;;;;;;;3.15;2.03;;;-0.10;1.40;;;0.60;100.00;96361.55;647274;212;31560;-75
2022/03/24 04:19:19;;;;;;;2.40;2.20;;;0.00;1.40;;;0.59;100.00;96358.22;647248;214;31745;-76
2022/03/24 04:22:01;;;;;;;2.40;1.30;;;0.10;1.40;;;0.56;100.00;96353.91;647581;216;31566;-75
2022/03/24 04:24:49;;;;;;;3.53;1.73;;;0.10;1.40;;;0.59;100.00;96353.73;648273;216;31543;-76
2022/03/24 04:27:42;;;;;;;2.90;2.20;;;0.10;1.40;;;0.66;100.00;96359.08;621689;222;31841;-75
2022/03/24 04:30:26;;;;;;;3.35;1.02;;;0.20;1.40;;;0.73;100.00;96352.18;646790;216;31601;-74
2022/03/24 04:35:51;;;;;;;2.75;1.83;;;0.20;1.40;;;0.70;100.00;96356.89;646468;216;31562;-75
2022/03/24 04:38:35;;;;;;;2.55;1.70;;;0.30;1.40;;;0.76;100.00;96356.24;649213;212;31518;-75
2022/03/24 04:41:21;;;;;;;2.03;1.83;;;0.30;1.40;;;0.81;100.00;96354.27;649433;212;31506;-75
2022/03/24 04:44:04;;;;;;;2.30;2.10;;;0.40;1.40;;;0.86;100.00;96358.47;652248;212;31611;-75
2022/03/24 04:49:31;;;;;;;1.95;1.80;;;0.40;1.40;;;0.93;100.00;96360.48;620620;222;31990;-76
2022/03/24 04:52:20;;;;;;;3.00;1.60;;;0.50;1.40;;;0.94;100.00;96365.41;620109;222;42382;-76
2022/03/24 04:55:07;;;;;;;4.12;2.12;;;0.50;1.40;;;0.97;100.00;96365.08;647726;216;42885;-76
2022/03/24 04:57:49;;;;;;;3.33;1.80;;;0.50;1.40;;;0.96;100.00;96367.66;648107;216;31639;-75
2022/03/24 05:00:31;;;;;;;3.35;2.20;;;0.40;1.40;;;0.90;100.00;96361.27;619088;222;31934;-76
2022/03/24 05:03:19;;;;;;;3.75;1.60;;;0.40;1.40;;;0.85;100.00;96357.44;648397;216;31535;-75
2022/03/24 05:06:08;;;;;;;2.55;2.25;;;0.40;1.40;;;0.83;100.00;96364.45;648588;213;31584;-75
2022/03/24 05:08:51;;;;;;;3.45;2.17;;;0.30;1.40;;;0.86;100.00;96363.17;648291;212;31475;-75
2022/03/24 05:11:34;;;;;;;4.95;2.85;;;0.40;1.40;;;0.86;100.00;96363.45;648796;216;31532;-75
2022/03/24 05:14:22;;;;;;;3.10;2.58;;;0.30;1.40;;;0.84;100.00;96366.95;645847;216;31776;-76
2022/03/24 05:17:06;;;;;;;2.47;1.60;;;0.30;1.40;;;0.81;100.00;96370.02;643917;217;31797;-76
2022/03/24 05:19:53;;;;;;;3.58;1.40;;;0.30;1.40;;;0.83;100.00;96371.41;620884;223;31918;-76
2022/03/24 05:22:36;;;;;;;2.72;2.45;;;0.30;1.40;;;0.93;100.00;96375.48;648613;216;31518;-75
2022/03/24 05:25:20;;;;;;;1.50;1.40;;;0.40;1.40;;;0.93;100.00;96370.10;648437;212;31758;-76
2022/03/24 05:28:04;;;;;;;1.75;1.60;;;0.50;1.40;;;0.88;100.00;96374.55;621581;226;31947;-75
2022/03/24 05:30:47;;;;;;;2.33;2.03;;;0.30;1.40;;;0.89;100.00;96372.81;648080;216;31534;-77
2022/03/24 05:35:55;;;;;;;3.03;1.65;;;0.40;1.40;;;1.00;100.00;96373.28;621067;225;31897;-77
2022/03/24 05:38:38;;;;;;;2.75;1.30;;;0.50;1.40;;;1.10;100.00;96375.78;647843;216;31545;-76
2022/03/24 05:41:20;;;;;;;2.60;1.80;;;0.70;1.40;;;1.18;100.00;96373.21;647055;216;31524;-75
2022/03/24 05:44:05;;;;;;;4.20;1.60;;;0.70;1.40;;;1.21;100.00;96372.02;647718;216;31588;-76
2022/03/24 05:46:51;;;;;;;2.78;2.17;;;0.70;1.40;;;1.24;100.00;96376.31;646733;216;31826;-75
2022/03/24 05:49:39;;;;;;;3.60;1.90;;;0.70;1.40;;;1.28;100.00;96377.06;647198;216;42492;-76
2022/03/24 05:52:24;;;;;;;2.85;2.45;;;0.70;1.40;;;1.30;100.00;96383.58;647822;216;31675;-76
2022/03/24 05:55:09;;;;;;;2.30;1.70;;;0.60;1.40;;;1.40;100.00;96380.64;647097;216;31518;-77
2022/03/24 05:57:55;;;;;;;2.70;2.40;;;0.70;1.40;;;1.40;100.00;96383.17;620552;226;31905;-76
2022/03/24 06:00:37;;;;;;;2.30;1.90;;;0.90;1.40;;;1.56;100.00;96386.73;649392;212;31531;-76
2022/03/24 06:03:23;;;;;;;2.17;1.48;;;0.80;1.40;;;1.60;100.00;96388.25;619780;226;32082;-77
2022/03/24 06:06:12;;;;;;;3.17;1.95;;;0.80;1.40;;;1.68;100.00;96387.10;645734;216;31622;-77
2022/03/24 06:08:56;;;;;;;2.47;1.83;;;0.90;1.40;;;1.77;100.00;96385.11;634720;216;32295;-76
2022/03/24 06:11:40;;;;;;;2.87;1.53;;;1.10;1.40;;;1.89;100.00;96387.11;648272;216;32162;-76
2022/03/24 06:14:21;;;;;;;3.75;2.30;;;1.30;1.40;;;2.04;100.00;96384.19;647895;212;32075;-76
2022/03/24 06:17:11;;;;;;;4.12;2.55;;;1.40;1.40;;;2.23;100.00;96386.84;620548;222;31916;-76
2022/03/24 06:19:54;;;;;;;2.10;1.92;;;1.60;1.40;;;2.44;100.00;96386.91;647877;212;31630;-76
2022/03/24 06:22:52;;;;;;;4.10;2.08;;;1.90;1.40;;;2.61;100.00;96385.83;647723;212;31550;-76
2022/03/24 06:25:39;;;;;;;7.03;2.20;;;2.10;1.40;;;2.87;100.00;96380.22;647733;212;31874;-76
2022/03/24 06:28:21;;;;;;;3.75;2.45;;;2.40;1.40;;;3.09;100.00;96379.30;620170;226;32313;-76
2022/03/24 06:31:02;;;;;;;3.47;1.75;;;2.60;1.40;;;3.35;100.00;96383.34;646051;216;31644;-76
2022/03/24 06:36:10;;;;;;;3.70;2.00;;;3.10;1.40;;;3.72;100.00;96381.52;641465;215;31626;-77
2022/03/24 06:38:53;;;;;;;6.15;3.78;;;3.30;1.40;;;3.88;100.00;96383.28;646143;216;32144;-76
2022/03/24 06:41:41;;;;;;;3.67;3.40;;;3.40;1.40;;;4.07;100.00;96383.73;643368;216;31739;-76
2022/03/24 06:44:23;;;;;;;3.05;2.70;;;3.50;1.40;;;4.29;100.00;96380.36;619120;222;31889;-77
2022/03/24 06:47:05;;;;;;;8.32;3.20;;;3.70;1.40;;;4.50;100.00;96384.08;646806;212;31575;-76
2022/03/24 06:49:47;;;;;;;4.22;3.58;;;3.80;1.40;;;4.60;100.00;96383.81;618308;226;31889;-78
2022/03/24 06:52:29;;;;;;;7.55;3.70;;;3.90;1.40;;;4.80;100.00;96383.36;620134;222;32091;-79
2022/03/24 06:55:16;;;;;;;3.08;2.22;;;4.20;1.40;;;4.94;100.00;96386.72;647795;212;31612;-79
2022/03/24 06:58:04;;;;;;;3.10;2.80;;;4.40;1.40;;;5.07;100.00;96381.09;620794;226;32216;-79
2022/03/24 07:00:47;;;;;;;3.40;2.33;;;4.50;1.40;;;5.23;100.00;96386.23;644250;214;32620;-79
2022/03/24 07:03:29;;;;;;;2.33;2.12;;;4.70;1.40;;;5.49;100.00;96384.67;620404;226;31903;-78
2022/03/24 07:06:16;;;;;;;5.57;3.35;;;5.00;1.40;;;5.79;100.00;96388.87;645980;212;31554;-78
2022/03/24 07:08:57;;;;;;;4.85;3.05;;;5.30;1.40;;;6.13;99.18;96383.92;618874;222;31955;-77
2022/03/24 07:11:39;;;;;;;4.82;2.58;;;5.70;1.40;;;6.38;97.50;96385.53;648024;216;32131;-78
2022/03/24 07:14:21;;;;;;;3.25;2.75;;;5.80;1.40;;;6.67;95.25;96387.86;648287;216;31646;-78
2022/03/24 07:17:02;;;;;;;3.50;3.20;;;6.00;1.40;;;6.84;92.86;96388.52;605456;222;32155;-79
2022/03/24 07:19:49;;;;;;;6.25;2.95;;;6.30;1.40;;;7.08;90.83;96389.40;618188;222;32151;-78
2022/03/24 07:22:32;;;;;;;5.65;3.53;;;6.30;1.40;;;7.21;90.44;96390.52;646865;216;31704;-78
2022/03/24 07:25:16;;;;;;;5.90;3.30;;;6.30;1.40;;;7.41;86.84;96386.51;647406;216;31586;-78
2022/03/24 07:27:58;;;;;;;5.00;2.60;;;6.70;1.40;;;7.71;85.16;96381.37;620420;222;32077;-79
2022/03/24 07:30:40;;;;;;;3.20;2.90;;;7.10;1.40;;;8.02;81.24;96384.52;647417;216;31590;-78
2022/03/24 07:35:51;;;;;;;3.42;2.92;;;7.70;1.40;;;8.44;77.08;96382.44;647025;212;42560;-79
2022/03/24 07:38:39;;;;;;;3.20;2.28;;;7.90;1.40;;;8.62;74.44;96382.92;646315;216;42174;-77
2022/03/24 07:41:27;;;;;;;4.30;2.90;;;8.00;1.40;;;8.83;73.63;96384.63;618761;226;43591;-79
2022/03/24 07:44:08;;;;;;;5.32;2.78;;;8.30;1.40;;;8.98;71.87;96391.53;621275;226;31947;-79
2022/03/24 07:46:50;;;;;;;3.73;2.27;;;8.40;1.40;;;9.06;71.76;96388.06;619497;226;31935;-78
2022/03/24 07:49:32;;;;;;;3.73;2.73;;;8.40;1.40;;;9.19;72.05;96391.05;647748;216;31572;-78
2022/03/24 07:52:14;;;;;;;3.50;2.73;;;8.60;1.40;;;9.37;71.66;96386.51;646908;216;31800;-79
2022/03/24 07:54:59;;;;;;;4.28;2.33;;;8.70;1.40;;;9.54;71.43;96385.69;619469;222;31930;-79
2022/03/24 07:57:40;;;;;;;4.33;3.17;;;8.90;1.40;;;9.76;71.94;96381.80;648115;212;31603;-78
2022/03/24 08:00:25;;;;;;;3.70;2.93;;;9.20;1.40;;;9.88;71.33;96382.22;619787;226;32198;-78
2022/03/24 08:03:10;;;;;;;3.78;2.28;;;9.20;1.40;;;9.98;70.77;96380.50;632287;222;32436;-79
2022/03/24 08:05:52;;;;;;;7.00;2.58;;;9.30;1.40;;;10.18;70.29;96381.13;646603;216;31586;-77
2022/03/24 08:08:34;;;;;;;5.33;2.57;;;9.50;1.40;;;10.50;71.50;96375.56;646675;216;31589;-79
2022/03/24 08:13:54;;;;;;;3.40;2.08;;;10.00;1.40;;;10.81;69.53;96367.58;647265;216;31540;-79
2022/03/24 08:16:35;;;;;;;4.10;2.73;;;10.20;1.40;;;10.92;68.59;96369.22;646825;216;31555;-78
2022/03/24 08:19:22;;;;;;;3.70;2.23;;;10.30;1.40;;;11.25;68.75;96369.97;647303;212;31537;-78
2022/03/24 08:22:04;;;;;;;5.60;2.80;;;10.50;1.40;;;11.48;66.27;96370.36;646462;216;31561;-77
2022/03/24 08:24:46;;;;;;;6.53;2.90;;;10.90;1.40;;;11.65;64.85;96371.56;647439;216;31574;-78
2022/03/24 08:30:01;;;;;;;4.20;2.70;;;11.10;1.40;;;11.98;64.71;96372.90;648320;216;31596;-77
2022/03/24 08:32:43;;;;;;;3.55;2.35;;;11.20;1.40;;;12.11;62.28;96368.36;647247;216;31552;-77
2022/03/24 08:35:51;;;;;;;4.47;3.10;;;11.40;1.40;;;12.29;61.88;96365.70;647334;212;31819;-78
2022/03/24 08:38:33;;;;;;;2.80;2.10;;;11.60;1.40;;;12.43;60.39;96368.44;646696;212;31563;-78
2022/03/24 08:41:14;;;;;;;3.80;3.03;;;11.60;1.40;;;12.85;60.09;96364.69;647519;216;32364;-78
2022/03/24 08:43:56;;;;;;;3.90;2.50;;;12.20;1.40;;;13.07;58.43;96365.83;620061;226;31917;-77
2022/03/24 08:46:39;;;;;;;3.00;2.50;;;12.40;1.40;;;13.24;56.76;96366.46;647013;212;31581;-78
2022/03/24 08:49:21;;;;;;;3.50;2.60;;;12.60;1.40;;;13.59;54.34;96368.17;648256;216;42194;-78
2022/03/24 08:52:02;;;;;;;3.70;2.87;;;12.90;1.40;;;13.71;53.33;96366.86;650849;216;32515;-78
2022/03/24 08:54:48;;;;;;;4.50;2.83;;;13.00;1.40;;;14.01;54.40;96364.91;621861;222;32051;-77
2022/03/24 08:57:43;;;;;;;4.25;2.80;;;13.50;1.40;;;14.26;51.66;96367.68;646954;212;31536;-77
2022/03/24 09:03:07;;;;;;;3.80;2.60;;;13.90;1.40;;;15.13;48.59;96357.09;618553;226;42773;-78
2022/03/24 09:06:01;;;;;;;3.10;2.25;;;14.70;1.40;;;16.47;46.60;96357.61;618311;222;31986;-77
2022/03/24 09:08:44;;;;;;;4.03;2.75;;;16.80;1.40;;;18.99;41.69;96354.47;646709;216;32753;-77
2022/03/24 09:11:26;;;;;;;4.70;3.17;;;20.00;1.40;;;21.03;37.89;96351.23;648163;216;31697;-77
2022/03/24 09:14:15;;;;;;;5.07;4.05;;;22.40;99.90;;;22.23;36.07;96351.80;621208;226;32301;-78
2022/03/24 09:16:52;;;;;;;6.93;3.30;;;22.70;1.40;;;23.97;35.36;96345.22;617049;230;22556;-78
2022/03/24 09:19:37;;;;;;;6.03;3.95;;;23.30;99.90;;;25.84;34.13;96345.37;649985;216;31574;-79
2022/03/24 09:22:19;;;;;;;4.10;3.65;;;24.60;99.90;;;27.33;36.18;96347.83;619669;225;38987;-77
2022/03/24 09:25:00;;;;;;;5.20;3.33;;;25.30;99.90;;;28.40;30.52;96338.61;646325;212;31612;-76
2022/03/24 09:27:43;;;;;;;4.50;4.05;;;25.30;99.90;;;28.01;32.47;96345.31;619972;226;32026;-77
2022/03/24 09:30:25;;;;;;;6.05;4.00;;;25.10;99.90;;;28.67;25.82;96339.73;647351;212;31959;-77
2022/03/24 09:35:51;;;;;;;6.70;4.43;;;24.80;99.90;;;29.62;29.45;96339.16;619885;226;31892;-77
2022/03/24 09:38:32;;;;;;;5.62;3.80;;;26.10;99.90;;;30.52;23.86;96336.01;646413;212;31803;-77
2022/03/24 09:41:16;;;;;;;6.72;4.90;;;26.60;99.90;;;30.74;25.15;96335.66;646126;212;32126;-78
2022/03/24 09:43:57;;;;;;;6.07;4.75;;;25.60;99.90;;;31.36;25.70;96333.48;647184;216;31717;-77
2022/03/24 09:46:38;;;;;;;8.05;4.10;;;26.80;99.90;;;33.28;23.55;96327.87;646384;216;31654;-77
2022/03/24 09:49:20;;;;;;;6.60;5.35;;;27.40;99.90;;;30.69;25.08;96331.77;647861;216;31869;-77
2022/03/24 09:52:02;;;;;;;5.85;5.07;;;26.30;99.90;;;31.60;26.02;96332.92;646173;212;42233;-77
2022/03/24 09:54:45;;;;;;;6.70;4.95;;;25.70;99.90;;;32.84;24.54;96331.70;647669;216;31755;-77
2022/03/24 09:57:26;;;;;;;7.32;5.32;;;27.20;99.90;;;33.55;24.98;96326.48;646328;216;31616;-77
2022/03/24 10:00:10;;;;;;;5.70;4.57;;;27.90;99.90;;;33.10;21.58;96325.39;647227;216;31583;-77
2022/03/24 10:03:09;;;;;;;6.62;4.95;;;26.40;99.90;;;32.89;22.21;96329.48;620484;222;31883;-77
2022/03/24 10:05:59;;;;;;;6.85;5.25;;;26.70;99.90;;;31.82;21.89;96328.60;647251;212;31591;-78
2022/03/24 10:08:40;;;;;;;5.82;4.50;;;27.00;99.90;;;30.96;21.44;96325.25;646927;216;31572;-77
2022/03/24 10:11:22;;;;;;;6.70;5.10;;;26.90;99.90;;;32.91;20.19;96322.02;646943;216;31582;-77
2022/03/24 10:14:03;;;;;;;5.18;4.68;;;27.90;99.90;;;33.31;21.30;96317.14;641993;216;31734;-77
2022/03/24 10:16:45;;;;;;;7.07;5.07;;;28.70;99.90;;;27.51;20.39;96330.34;618097;226;32381;-77
2022/03/24 10:19:28;;;;;;;5.12;4.62;;;24.00;99.90;;;27.29;22.49;96331.81;620109;222;32016;-77
2022/03/24 10:22:10;;;;;;;6.50;5.30;;;24.80;99.90;;;31.68;20.90;96316.49;645617;212;31986;-77
2022/03/24 10:24:52;;;;;;;5.72;5.12;;;27.40;99.90;;;33.90;21.23;96310.17;620357;226;32052;-78
2022/03/24 10:27:34;;;;;;;5.60;5.10;;;28.70;99.90;;;33.51;19.36;96307.75;619349;222;32083;-78
2022/03/24 10:30:16;;;;;;;8.48;5.40;;;27.40;99.90;;;33.51;19.39;96308.66;648377;216;31581;-77
2022/03/24 10:32:58;;;;;;;6.75;5.20;;;27.50;99.90;;;33.70;18.70;96307.74;647465;216;31575;-78
2022/03/24 10:35:51;;;;;;;5.72;4.85;;;28.20;99.90;;;35.90;17.75;96298.01;647437;212;31610;-78
2022/03/24 10:38:33;;;;;;;4.82;4.25;;;28.50;99.90;;;34.08;17.51;96300.38;619577;225;32058;-77
2022/03/24 10:41:16;;;;;;;6.80;5.70;;;27.90;99.90;;;32.88;19.75;96299.18;616490;226;32080;-77
2022/03/24 10:44:00;;;;;;;6.32;5.70;;;27.10;99.90;;;35.20;18.26;96295.89;619325;226;32104;-78
2022/03/24 10:46:42;;;;;;;5.53;5.00;;;27.50;99.90;;;35.42;18.50;96295.18;619900;226;32045;-78
2022/03/24 10:49:25;;;;;;;5.32;4.82;;;29.50;99.90;;;36.52;16.99;96292.35;647151;216;42235;-77
2022/03/24 10:52:05;;;;;;;4.90;4.35;;;28.40;1.00;;;36.23;18.47;96286.92;616204;224;31984;-77
2022/03/24 10:54:48;;;;;;;5.70;5.10;;;29.40;99.90;;;33.30;19.86;96288.53;647504;216;31613;-77
2022/03/24 10:57:30;;;;;;;5.30;4.80;;;28.00;99.90;;;34.31;17.08;96284.38;645928;216;31554;-78
2022/03/24 11:00:13;;;;;;;5.30;4.80;;;29.00;99.90;;;33.58;18.04;96277.92;618956;226;32358;-77
2022/03/24 11:03:00;;;;;;;5.18;3.92;;;27.70;99.90;;;29.43;17.79;96294.65;619437;226;32002;-78
2022/03/24 11:05:43;;;;;;;3.92;3.53;;;26.30;99.90;;;30.09;18.06;96292.59;646058;212;31580;-78
2022/03/24 11:08:24;;;;;;;5.47;4.05;;;27.50;99.90;;;33.92;17.69;96279.91;646880;214;31966;-77
2022/03/24 11:11:10;;;;;;;5.00;3.70;;;28.60;99.90;;;34.90;16.25;96282.52;646070;216;31642;-77
2022/03/24 11:14:02;;;;;;;3.78;3.47;;;27.60;99.90;;;30.40;17.57;96281.59;646263;216;31676;-76
2022/03/24 11:16:43;;;;;;;5.03;4.53;;;25.60;99.90;;;27.83;19.22;96290.86;621037;226;32762;-78
2022/03/24 11:19:31;;;;;;;5.10;4.22;;;24.90;99.90;;;29.49;19.00;96280.81;646168;216;31588;-76
2022/03/24 11:22:16;;;;;;;6.25;4.30;;;26.60;99.90;;;27.43;20.14;96291.73;619256;226;31940;-77
2022/03/24 11:25:01;;;;;;;8.25;5.07;;;24.10;99.90;;;30.98;18.11;96280.49;647215;216;31600;-76
2022/03/24 11:27:42;;;;;;;5.55;4.00;;;27.20;99.90;;;31.66;18.49;96277.19;619753;226;32105;-77
2022/03/24 11:30:24;;;;;;;5.87;4.28;;;27.00;99.90;;;27.75;19.64;96281.34;645909;212;31611;-76
2022/03/24 11:35:51;;;;;;;4.30;3.90;;;23.90;99.90;;;25.97;20.69;96282.89;642049;215;31630;-76
2022/03/24 11:38:33;;;;;;;4.60;3.87;;;24.70;99.90;;;32.99;16.68;96264.59;646710;216;31635;-76
2022/03/24 11:41:24;;;;;;;3.30;3.00;;;27.80;99.90;;;33.74;15.85;96260.62;646708;212;31595;-77
2022/03/24 11:44:22;;;;;;;4.80;4.35;;;27.90;77.70;;;30.09;17.02;96260.97;620068;222;31913;-77
2022/03/24 11:47:04;;;;;;;5.55;4.35;;;25.10;99.90;;;27.01;19.00;96266.41;647285;216;31607;-77
2022/03/24 11:52:36;;;;;;;4.40;4.00;;;24.00;99.90;;;30.53;18.01;96252.78;616079;224;31968;-77
2022/03/24 11:55:18;;;;;;;5.00;4.30;;;25.80;99.90;;;32.11;17.98;96251.70;646625;212;31614;-77
2022/03/24 11:58:00;;;;;;;5.70;4.10;;;27.70;1.40;;;33.70;16.17;96246.35;646794;216;31606;-76
2022/03/24 12:00:42;;;;;;;4.70;4.25;;;28.60;99.90;;;34.66;16.39;96240.65;618227;226;31947;-76
2022/03/24 12:03:42;;;;;;;5.45;4.53;;;28.30;99.90;;;36.79;15.78;96232.61;619736;226;31920;-77
2022/03/24 12:06:52;;;;;;;4.55;3.97;;;29.40;99.90;;;37.46;15.42;96231.66;646669;216;31579;-77
2022/03/24 12:09:34;;;;;;;6.10;4.53;;;29.70;99.90;;;37.13;15.68;96228.47;647035;215;31693;-77
2022/03/24 12:12:14;;;;;;;5.47;4.57;;;29.50;99.90;;;36.22;14.23;96235.08;646992;216;31699;-77
2022/03/24 12:14:58;;;;;;;5.12;4.22;;;28.70;79.60;;;36.70;15.22;96223.05;620252;226;31976;-76